Canyon Lake, Texas
Current Conditions -  °F | °C
As of 5:51 PM on Friday 19 Dec 2014 (Local Time) from KBAZ Reporting Station
Overcast Overcast  
Wind Chill: 56°   Ceiling: 2000
Heat Index: 56°   Visibility: 10mi
Dew Point: 47°   Wind: 15mph
Humidity: 72%   Direction: 20°NNE
Pressure: 30.1"   Gusts: NA
Location:  29.84°N, 98.27°W
Report Text: KBAZ 192351Z AUTO 02013KT 10SM OVC020 13/08 A3010 RMK AO2 SLP189 T01330083 10178 20133 53014
Loading
Personal Weather Stations






























Interactive Weather Map New forecast layout! Learn more

10-Day Weather Forecast

Advertisements
Track Severe Weather on mobile